PWSweather.com
Personal Weather Stations
Station Observations
LABLIDAR
PotenzaIT

PotenzaIT

Lat: 40.6467, Lon: 15.809

Elevation: 2395

Station Type: Oregon WMRS200

Latest ConditionsUpdated 8:07:18 PM GMT+01:01 Wednesday, Jul 30, 2014
Currently Today's Max Today's Min Today's Average
Temperature 73.0°F22.8°C 75.9°F24.4°C 72.8°F22.7°C 74.2°F23.4°C
Dew Point 51.1°F10.6°C 57.2°F14.0°C 45.4°F7.4°C 51.2°F10.7°C
Winds - N16091.8 kmh N 7.0 mph NW11.3 kmh NW - 2.4 mph 3.9 kmh
Wind Gusts -- 13.4 mph21.6 kmh - -
Humidity 46% 57% 34% 45%
Pressure 27.52 in931.9 mb 27.55 in933.0 mb 27.43 in928.9 mb -
Hour Temp Dew Point Humidity Winds Wind Gusts Pressure Precip Precip Rate Daily Precip Total
08:07 PM 73.0°F22.8°C 51.1°F10.6°C 46% - N16091.8 kmh N -- 27.52 in931.9 mb 0.00 in0.0 mm 0.00 in/hr0.0 mm/hr 0.00 in0.0 mm
08:02 PM 73.0°F22.8°C 51.1°F10.6°C 46% - N16091.8 kmh N -- 27.52 in931.9 mb 0.00 in0.0 mm 0.00 in/hr0.0 mm/hr 0.00 in0.0 mm
07:57 PM 73.2°F22.9°C 51.2°F10.7°C 46% - N16091.8 kmh N -- 27.52 in931.9 mb 0.00 in0.0 mm 0.00 in/hr0.0 mm/hr 0.00 in0.0 mm
07:52 PM 73.2°F22.9°C 51.2°F10.7°C 46% - N16091.8 kmh N -- 27.52 in931.9 mb 0.00 in0.0 mm 0.00 in/hr0.0 mm/hr 0.00 in0.0 mm
07:47 PM 73.2°F22.9°C 51.2°F10.7°C 46% - N16091.8 kmh N -- 27.52 in931.9 mb 0.00 in0.0 mm 0.00 in/hr0.0 mm/hr 0.00 in0.0 mm
07:42 PM 73.4°F23.0°C 51.4°F10.8°C 46% - N16091.8 kmh N -- 27.52 in931.9 mb 0.00 in0.0 mm 0.00 in/hr0.0 mm/hr 0.00 in0.0 mm
07:37 PM 73.4°F23.0°C 50.8°F10.4°C 45% - N16091.8 kmh N -- 27.52 in931.9 mb 0.00 in0.0 mm 0.00 in/hr0.0 mm/hr 0.00 in0.0 mm
07:32 PM 73.5°F23.1°C 50.9°F10.5°C 45% - N16091.8 kmh N -- 27.52 in931.9 mb 0.00 in0.0 mm 0.00 in/hr0.0 mm/hr 0.00 in0.0 mm
07:27 PM 73.6°F23.1°C 51.0°F10.6°C 45% - N16091.8 kmh N -- 27.49 in930.9 mb 0.00 in0.0 mm 0.00 in/hr0.0 mm/hr 0.00 in0.0 mm
07:22 PM 73.6°F23.1°C 50.7°F10.4°C 45% - N16091.8 kmh N -- 27.49 in930.9 mb 0.00 in0.0 mm 0.00 in/hr0.0 mm/hr 0.00 in0.0 mm
07:17 PM 73.8°F23.2°C 50.5°F10.3°C 44% - N16091.8 kmh N -- 27.49 in930.9 mb 0.00 in0.0 mm 0.00 in/hr0.0 mm/hr 0.00 in0.0 mm
07:12 PM 73.8°F23.2°C 50.5°F10.3°C 44% - N16091.8 kmh N -- 27.52 in931.9 mb 0.00 in0.0 mm 0.00 in/hr0.0 mm/hr 0.00 in0.0 mm
07:07 PM 73.9°F23.3°C 50.6°F10.3°C 44% - N16091.8 kmh N -- 27.52 in931.9 mb 0.00 in0.0 mm 0.00 in/hr0.0 mm/hr 0.00 in0.0 mm
07:02 PM 73.9°F23.3°C 50.7°F10.4°C 44% - N16091.8 kmh N -- 27.52 in931.9 mb 0.00 in0.0 mm 0.00 in/hr0.0 mm/hr 0.00 in0.0 mm
06:57 PM 73.9°F23.3°C 50.4°F10.2°C 44% - N16091.8 kmh N -- 27.49 in930.9 mb 0.00 in0.0 mm 0.00 in/hr0.0 mm/hr 0.00 in0.0 mm
06:52 PM 74.1°F23.4°C 50.2°F10.1°C 43% - N16091.8 kmh N -- 27.49 in930.9 mb 0.00 in0.0 mm 0.00 in/hr0.0 mm/hr 0.00 in0.0 mm
06:47 PM 74.1°F23.4°C 50.2°F10.1°C 43% - N16091.8 kmh N -- 27.49 in930.9 mb 0.00 in0.0 mm 0.00 in/hr0.0 mm/hr 0.00 in0.0 mm
06:42 PM 74.1°F23.4°C 50.2°F10.1°C 43% - N16091.8 kmh N -- 27.46 in929.9 mb 0.00 in0.0 mm 0.00 in/hr0.0 mm/hr 0.00 in0.0 mm
06:37 PM 74.1°F23.4°C 50.2°F10.1°C 43% - N16091.8 kmh N -- 27.46 in929.9 mb 0.00 in0.0 mm 0.00 in/hr0.0 mm/hr 0.00 in0.0 mm
06:32 PM 73.9°F23.3°C 49.7°F9.8°C 43% - N16091.8 kmh N -- 27.46 in929.9 mb 0.00 in0.0 mm 0.00 in/hr0.0 mm/hr 0.00 in0.0 mm
06:27 PM 73.9°F23.3°C 49.4°F9.7°C 42% - N16091.8 kmh N -- 27.49 in930.9 mb 0.00 in0.0 mm 0.00 in/hr0.0 mm/hr 0.00 in0.0 mm
06:22 PM 73.8°F23.2°C 49.3°F9.6°C 42% - N16091.8 kmh N -- 27.49 in930.9 mb 0.00 in0.0 mm 0.00 in/hr0.0 mm/hr 0.00 in0.0 mm
06:17 PM 73.6°F23.1°C 49.2°F9.6°C 42% - N16091.8 kmh N -- 27.49 in930.9 mb 0.00 in0.0 mm 0.00 in/hr0.0 mm/hr 0.00 in0.0 mm
06:12 PM 73.5°F23.1°C 49.4°F9.7°C 42% - N16091.8 kmh N -- 27.46 in929.9 mb 0.00 in0.0 mm 0.00 in/hr0.0 mm/hr 0.00 in0.0 mm
06:07 PM 73.3°F22.9°C 49.5°F9.7°C 43% - N16091.8 kmh N -- 27.46 in929.9 mb 0.00 in0.0 mm 0.00 in/hr0.0 mm/hr 0.00 in0.0 mm
06:02 PM 73.0°F22.8°C 49.2°F9.6°C 43% - N16091.8 kmh N -- 27.46 in929.9 mb 0.00 in0.0 mm 0.00 in/hr0.0 mm/hr 0.00 in0.0 mm
05:57 PM 73.3°F22.9°C 48.1°F8.9°C 43% - N16091.8 kmh N -- 27.49 in930.9 mb 0.00 in0.0 mm 0.00 in/hr0.0 mm/hr 0.00 in0.0 mm
05:52 PM 74.1°F23.4°C 48.0°F8.9°C 37% - N16091.8 kmh N -- 27.49 in930.9 mb 0.00 in0.0 mm 0.00 in/hr0.0 mm/hr 0.00 in0.0 mm
05:47 PM 74.2°F23.4°C 49.3°F9.6°C 41% - N16091.8 kmh N -- 27.49 in930.9 mb 0.00 in0.0 mm 0.00 in/hr0.0 mm/hr 0.00 in0.0 mm
05:42 PM 73.9°F23.3°C 49.4°F9.7°C 42% - N16091.8 kmh N -- 27.49 in930.9 mb 0.00 in0.0 mm 0.00 in/hr0.0 mm/hr 0.00 in0.0 mm
05:37 PM 73.6°F23.1°C 49.1°F9.5°C 42% - N16091.8 kmh N -- 27.49 in930.9 mb 0.00 in0.0 mm 0.00 in/hr0.0 mm/hr 0.00 in0.0 mm
05:32 PM 73.5°F23.1°C 48.3°F9.1°C 42% - N16091.8 kmh N -- 27.49 in930.9 mb 0.00 in0.0 mm 0.00 in/hr0.0 mm/hr 0.00 in0.0 mm
05:27 PM 73.9°F23.3°C 48.1°F8.9°C 38% - N16091.8 kmh N -- 27.49 in930.9 mb 0.00 in0.0 mm 0.00 in/hr0.0 mm/hr 0.00 in0.0 mm
05:22 PM 73.8°F23.2°C 49.8°F9.9°C 42% - N16091.8 kmh N -- 27.49 in930.9 mb 0.00 in0.0 mm 0.00 in/hr0.0 mm/hr 0.00 in0.0 mm
05:17 PM 73.5°F23.1°C 50.0°F10.0°C 43% - N16091.8 kmh N -- 27.49 in930.9 mb 0.00 in0.0 mm 0.00 in/hr0.0 mm/hr 0.00 in0.0 mm
05:12 PM 73.3°F22.9°C 48.5°F9.2°C 43% - N16091.8 kmh N -- 27.49 in930.9 mb 0.00 in0.0 mm 0.00 in/hr0.0 mm/hr 0.00 in0.0 mm
05:07 PM 73.5°F23.1°C 49.5°F9.7°C 41% - N16091.8 kmh N -- 27.49 in930.9 mb 0.00 in0.0 mm 0.00 in/hr0.0 mm/hr 0.00 in0.0 mm
05:02 PM 73.3°F22.9°C 50.6°F10.3°C 45% - N16091.8 kmh N -- 27.49 in930.9 mb 0.00 in0.0 mm 0.00 in/hr0.0 mm/hr 0.00 in0.0 mm
04:57 PM 73.3°F22.9°C 48.9°F9.4°C 44% - N16091.8 kmh N -- 27.46 in929.9 mb 0.00 in0.0 mm 0.00 in/hr0.0 mm/hr 0.00 in0.0 mm
04:52 PM 73.5°F23.1°C 50.1°F10.1°C 42% - N16091.8 kmh N -- 27.46 in929.9 mb 0.00 in0.0 mm 0.00 in/hr0.0 mm/hr 0.00 in0.0 mm
04:47 PM 73.2°F22.9°C 50.6°F10.3°C 45% - N16091.8 kmh N -- 27.46 in929.9 mb 0.00 in0.0 mm 0.00 in/hr0.0 mm/hr 0.00 in0.0 mm
04:42 PM 73.8°F23.2°C 48.7°F9.3°C 44% - N16091.8 kmh N -- 27.52 in931.9 mb 0.00 in0.0 mm 0.00 in/hr0.0 mm/hr 0.00 in0.0 mm
04:37 PM 74.3°F23.5°C 50.9°F10.5°C 42% - N16091.8 kmh N -- 27.52 in931.9 mb 0.00 in0.0 mm 0.00 in/hr0.0 mm/hr 0.00 in0.0 mm
04:32 PM 74.0°F23.3°C 51.4°F10.8°C 45% - N16091.8 kmh N -- 27.52 in931.9 mb 0.00 in0.0 mm 0.00 in/hr0.0 mm/hr 0.00 in0.0 mm
04:27 PM 73.8°F23.2°C 50.0°F10.0°C 45% - N16091.8 kmh N -- 27.49 in930.9 mb 0.00 in0.0 mm 0.00 in/hr0.0 mm/hr 0.00 in0.0 mm
04:22 PM 73.9°F23.3°C 49.1°F9.5°C 41% - N16091.8 kmh N -- 27.49 in930.9 mb 0.00 in0.0 mm 0.00 in/hr0.0 mm/hr 0.00 in0.0 mm
04:17 PM 73.9°F23.3°C 51.2°F10.7°C 45% - N16091.8 kmh N -- 27.49 in930.9 mb 0.00 in0.0 mm 0.00 in/hr0.0 mm/hr 0.00 in0.0 mm
04:12 PM 74.1°F23.4°C 49.9°F9.9°C 45% - N16091.8 kmh N -- 27.46 in929.9 mb 0.00 in0.0 mm 0.00 in/hr0.0 mm/hr 0.00 in0.0 mm
04:07 PM 74.6°F23.7°C 49.3°F9.6°C 39% - N16091.8 kmh N -- 27.46 in929.9 mb 0.00 in0.0 mm 0.00 in/hr0.0 mm/hr 0.00 in0.0 mm
04:02 PM 74.6°F23.7°C 51.8°F11.0°C 45% - N16091.8 kmh N -- 27.46 in929.9 mb 0.00 in0.0 mm 0.00 in/hr0.0 mm/hr 0.00 in0.0 mm
03:57 PM 74.3°F23.5°C 50.1°F10.1°C 45% - N16091.8 kmh N -- 27.49 in930.9 mb 0.00 in0.0 mm 0.00 in/hr0.0 mm/hr 0.00 in0.0 mm
03:52 PM 74.5°F23.6°C 48.5°F9.2°C 39% - N16091.8 kmh N -- 27.49 in930.9 mb 0.00 in0.0 mm 0.00 in/hr0.0 mm/hr 0.00 in0.0 mm
03:47 PM 74.7°F23.7°C 52.1°F11.2°C 43% - N16091.8 kmh N -- 27.49 in930.9 mb 0.00 in0.0 mm 0.00 in/hr0.0 mm/hr 0.00 in0.0 mm
03:42 PM 74.3°F23.5°C 51.2°F10.7°C 45% - N16091.8 kmh N -- 27.52 in931.9 mb 0.00 in0.0 mm 0.00 in/hr0.0 mm/hr 0.00 in0.0 mm
03:37 PM 74.4°F23.6°C 48.7°F9.3°C 41% - N16091.8 kmh N -- 27.52 in931.9 mb 0.00 in0.0 mm 0.00 in/hr0.0 mm/hr 0.00 in0.0 mm
03:32 PM 74.8°F23.8°C 51.7°F10.9°C 42% - N16091.8 kmh N -- 27.52 in931.9 mb 0.00 in0.0 mm 0.00 in/hr0.0 mm/hr 0.00 in0.0 mm
03:27 PM 74.5°F23.6°C 51.8°F11.0°C 46% - N16091.8 kmh N -- 27.46 in929.9 mb 0.00 in0.0 mm 0.00 in/hr0.0 mm/hr 0.00 in0.0 mm
03:22 PM 74.5°F23.6°C 49.6°F9.8°C 43% - N16091.8 kmh N -- 27.46 in929.9 mb 0.00 in0.0 mm 0.00 in/hr0.0 mm/hr 0.00 in0.0 mm
03:17 PM 74.6°F23.7°C 50.3°F10.2°C 40% - N16091.8 kmh N -- 27.46 in929.9 mb 0.00 in0.0 mm 0.00 in/hr0.0 mm/hr 0.00 in0.0 mm
03:12 PM 74.5°F23.6°C 51.7°F10.9°C 46% - N16091.8 kmh N -- 27.49 in930.9 mb 0.00 in0.0 mm 0.00 in/hr0.0 mm/hr 0.00 in0.0 mm
03:07 PM 74.9°F23.8°C 48.5°F9.2°C 43% - N16091.8 kmh N -- 27.49 in930.9 mb 0.00 in0.0 mm 0.00 in/hr0.0 mm/hr 0.00 in0.0 mm
03:02 PM 75.5°F24.2°C 49.8°F9.9°C 38% - N16091.8 kmh N -- 27.49 in930.9 mb 0.00 in0.0 mm 0.00 in/hr0.0 mm/hr 0.00 in0.0 mm
02:57 PM 75.5°F24.2°C 51.3°F10.7°C 44% - N16091.8 kmh N -- 27.46 in929.9 mb 0.00 in0.0 mm 0.00 in/hr0.0 mm/hr 0.00 in0.0 mm
02:52 PM 75.4°F24.1°C 47.8°F8.8°C 41% - N16091.8 kmh N -- 27.46 in929.9 mb 0.00 in0.0 mm 0.00 in/hr0.0 mm/hr 0.00 in0.0 mm
02:47 PM 75.7°F24.3°C 48.3°F9.1°C 35% - N16091.8 kmh N -- 27.46 in929.9 mb 0.00 in0.0 mm 0.00 in/hr0.0 mm/hr 0.00 in0.0 mm
02:42 PM 75.9°F24.4°C 51.6°F10.9°C 42% - N16091.8 kmh N -- 27.49 in930.9 mb 0.00 in0.0 mm 0.00 in/hr0.0 mm/hr 0.00 in0.0 mm
02:37 PM 75.6°F24.2°C 48.3°F9.1°C 41% - N16091.8 kmh N -- 27.49 in930.9 mb 0.00 in0.0 mm 0.00 in/hr0.0 mm/hr 0.00 in0.0 mm
02:32 PM 75.6°F24.2°C 45.7°F7.6°C 34% - N16091.8 kmh N -- 27.49 in930.9 mb 0.00 in0.0 mm 0.00 in/hr0.0 mm/hr 0.00 in0.0 mm
02:27 PM 75.7°F24.3°C 49.3°F9.6°C 36% - N16091.8 kmh N -- 27.49 in930.9 mb 0.00 in0.0 mm 0.00 in/hr0.0 mm/hr 0.00 in0.0 mm
02:22 PM 75.5°F24.2°C 51.4°F10.8°C 43% - N16091.8 kmh N -- 27.49 in930.9 mb 0.00 in0.0 mm 0.00 in/hr0.0 mm/hr 0.00 in0.0 mm
02:17 PM 75.1°F23.9°C 47.7°F8.7°C 41% - N16091.8 kmh N -- 27.49 in930.9 mb 0.00 in0.0 mm 0.00 in/hr0.0 mm/hr 0.00 in0.0 mm
02:12 PM 75.0°F23.9°C 45.4°F7.4°C 34% - N16091.8 kmh N -- 27.46 in929.9 mb 0.00 in0.0 mm 0.00 in/hr0.0 mm/hr 0.00 in0.0 mm
02:07 PM 75.1°F23.9°C 48.7°F9.3°C 37% - N16091.8 kmh N -- 27.46 in929.9 mb 0.00 in0.0 mm 0.00 in/hr0.0 mm/hr 0.00 in0.0 mm
02:02 PM 74.9°F23.8°C 52.1°F11.2°C 43% - N16091.8 kmh N -- 27.46 in929.9 mb 0.00 in0.0 mm 0.00 in/hr0.0 mm/hr 0.00 in0.0 mm
01:57 PM 75.0°F23.9°C 50.1°F10.1°C 45% - N16091.8 kmh N -- 27.46 in929.9 mb 0.00 in0.0 mm 0.00 in/hr0.0 mm/hr 0.00 in0.0 mm
01:52 PM 75.5°F24.2°C 46.6°F8.1°C 35% - N16091.8 kmh N -- 27.46 in929.9 mb 0.00 in0.0 mm 0.00 in/hr0.0 mm/hr 0.00 in0.0 mm
01:47 PM 75.7°F24.3°C 50.7°F10.4°C 39% - N16091.8 kmh N -- 27.46 in929.9 mb 0.00 in0.0 mm 0.00 in/hr0.0 mm/hr 0.00 in0.0 mm
01:42 PM 75.6°F24.2°C 52.0°F11.1°C 46% - N16091.8 kmh N -- 27.46 in929.9 mb 0.00 in0.0 mm 0.00 in/hr0.0 mm/hr 0.00 in0.0 mm
01:37 PM 75.6°F24.2°C 47.4°F8.6°C 40% - N16091.8 kmh N -- 27.46 in929.9 mb 0.00 in0.0 mm 0.00 in/hr0.0 mm/hr 0.00 in0.0 mm
01:32 PM 75.8°F24.3°C 49.6°F9.8°C 37% - N16091.8 kmh N -- 27.46 in929.9 mb 0.00 in0.0 mm 0.00 in/hr0.0 mm/hr 0.00 in0.0 mm
01:27 PM 75.9°F24.4°C 52.8°F11.6°C 44% - N16091.8 kmh N -- 27.46 in929.9 mb 0.00 in0.0 mm 0.00 in/hr0.0 mm/hr 0.00 in0.0 mm
01:22 PM 75.7°F24.3°C 50.1°F10.1°C 43% - N16091.8 kmh N -- 27.46 in929.9 mb 0.00 in0.0 mm 0.00 in/hr0.0 mm/hr 0.00 in0.0 mm
01:17 PM 75.7°F24.3°C 47.2°F8.4°C 36% - N16091.8 kmh N -- 27.46 in929.9 mb 0.00 in0.0 mm 0.00 in/hr0.0 mm/hr 0.00 in0.0 mm
01:12 PM 75.9°F24.4°C 51.0°F10.6°C 40% - N16091.8 kmh N -- 27.49 in930.9 mb 0.00 in0.0 mm 0.00 in/hr0.0 mm/hr 0.00 in0.0 mm
01:07 PM 75.7°F24.3°C 52.3°F11.3°C 46% - N16091.8 kmh N -- 27.49 in930.9 mb 0.00 in0.0 mm 0.00 in/hr0.0 mm/hr 0.00 in0.0 mm
01:02 PM 75.4°F24.1°C 48.4°F9.1°C 41% - N16091.8 kmh N -- 27.49 in930.9 mb 0.00 in0.0 mm 0.00 in/hr0.0 mm/hr 0.00 in0.0 mm
12:57 PM 75.5°F24.2°C 48.6°F9.2°C 37% - N16091.8 kmh N -- 27.46 in929.9 mb 0.00 in0.0 mm 0.00 in/hr0.0 mm/hr 0.00 in0.0 mm
12:52 PM 75.8°F24.3°C 52.9°F11.6°C 43% - N16091.8 kmh N -- 27.46 in929.9 mb 0.00 in0.0 mm 0.00 in/hr0.0 mm/hr 0.00 in0.0 mm
12:47 PM 75.6°F24.2°C 51.4°F10.8°C 45% - N16091.8 kmh N -- 27.46 in929.9 mb 0.00 in0.0 mm 0.00 in/hr0.0 mm/hr 0.00 in0.0 mm
12:42 PM 75.4°F24.1°C 47.0°F8.3°C 39% - N16091.8 kmh N -- 27.46 in929.9 mb 0.00 in0.0 mm 0.00 in/hr0.0 mm/hr 0.00 in0.0 mm
12:37 PM 75.5°F24.2°C 49.3°F9.6°C 38% - N16091.8 kmh N -- 27.46 in929.9 mb 0.00 in0.0 mm 0.00 in/hr0.0 mm/hr 0.00 in0.0 mm
12:32 PM 75.6°F24.2°C 53.7°F12.1°C 44% - N16091.8 kmh N -- 27.46 in929.9 mb 0.00 in0.0 mm 0.00 in/hr0.0 mm/hr 0.00 in0.0 mm
12:27 PM 75.1°F23.9°C 52.4°F11.3°C 47% - N16091.8 kmh N -- 27.49 in930.9 mb 0.00 in0.0 mm 0.00 in/hr0.0 mm/hr 0.00 in0.0 mm
12:22 PM 74.7°F23.7°C 47.7°F8.7°C 41% - N16091.8 kmh N -- 27.49 in930.9 mb 0.00 in0.0 mm 0.00 in/hr0.0 mm/hr 0.00 in0.0 mm
12:17 PM 74.8°F23.8°C 49.7°F9.8°C 38% - N16091.8 kmh N -- 27.49 in930.9 mb 0.00 in0.0 mm 0.00 in/hr0.0 mm/hr 0.00 in0.0 mm
12:12 PM 74.6°F23.7°C 53.8°F12.1°C 45% - N16091.8 kmh N -- 27.49 in930.9 mb 0.00 in0.0 mm 0.00 in/hr0.0 mm/hr 0.00 in0.0 mm
12:07 PM 74.3°F23.5°C 53.3°F11.8°C 50% - N16091.8 kmh N -- 27.49 in930.9 mb 0.00 in0.0 mm 0.00 in/hr0.0 mm/hr 0.00 in0.0 mm
12:02 PM 74.7°F23.7°C 48.8°F9.3°C 43% - N16091.8 kmh N -- 27.49 in930.9 mb 0.00 in0.0 mm 0.00 in/hr0.0 mm/hr 0.00 in0.0 mm
11:57 AM 74.8°F23.8°C 49.4°F9.7°C 38% - N16091.8 kmh N -- 27.49 in930.9 mb 0.00 in0.0 mm 0.00 in/hr0.0 mm/hr 0.00 in0.0 mm
11:52 AM 74.8°F23.8°C 53.5°F11.9°C 44% - N16091.8 kmh N -- 27.49 in930.9 mb 0.00 in0.0 mm 0.00 in/hr0.0 mm/hr 0.00 in0.0 mm
11:47 AM 74.5°F23.6°C 53.8°F12.1°C 51% - N16091.8 kmh N -- 27.49 in930.9 mb 0.00 in0.0 mm 0.00 in/hr0.0 mm/hr 0.00 in0.0 mm
11:42 AM 74.9°F23.8°C 49.6°F9.8°C 45% - N16091.8 kmh N -- 27.49 in930.9 mb 0.00 in0.0 mm 0.00 in/hr0.0 mm/hr 0.00 in0.0 mm
11:37 AM 75.3°F24.1°C 50.3°F10.2°C 38% - N16091.8 kmh N -- 27.49 in930.9 mb 0.00 in0.0 mm 0.00 in/hr0.0 mm/hr 0.00 in0.0 mm
11:32 AM 75.4°F24.1°C 54.8°F12.7°C 46% - N16091.8 kmh N -- 27.49 in930.9 mb 0.00 in0.0 mm 0.00 in/hr0.0 mm/hr 0.00 in0.0 mm
11:27 AM 75.1°F23.9°C 53.3°F11.8°C 50% - N16091.8 kmh N -- 27.49 in930.9 mb 0.00 in0.0 mm 0.00 in/hr0.0 mm/hr 0.00 in0.0 mm
11:22 AM 74.8°F23.8°C 49.4°F9.7°C 43% - N16091.8 kmh N -- 27.49 in930.9 mb 0.00 in0.0 mm 0.00 in/hr0.0 mm/hr 0.00 in0.0 mm
11:17 AM 74.9°F23.8°C 50.8°F10.4°C 41% - N16091.8 kmh N -- 27.49 in930.9 mb 0.00 in0.0 mm 0.00 in/hr0.0 mm/hr 0.00 in0.0 mm
11:12 AM 75.0°F23.9°C 55.6°F13.1°C 48% - N16091.8 kmh N -- 27.46 in929.9 mb 0.00 in0.0 mm 0.00 in/hr0.0 mm/hr 0.00 in0.0 mm
11:07 AM 74.6°F23.7°C 53.1°F11.7°C 50% - N16091.8 kmh N -- 27.46 in929.9 mb 0.00 in0.0 mm 0.00 in/hr0.0 mm/hr 0.00 in0.0 mm
11:02 AM 74.3°F23.5°C 49.1°F9.5°C 43% - N16091.8 kmh N -- 27.46 in929.9 mb 0.00 in0.0 mm 0.00 in/hr0.0 mm/hr 0.00 in0.0 mm
10:57 AM 74.3°F23.5°C 51.4°F10.8°C 41% - N16091.8 kmh N -- 27.52 in931.9 mb 0.00 in0.0 mm 0.00 in/hr0.0 mm/hr 0.00 in0.0 mm
10:52 AM 74.1°F23.4°C 56.0°F13.3°C 50% - N16091.8 kmh N -- 27.52 in931.9 mb 0.00 in0.0 mm 0.00 in/hr0.0 mm/hr 0.00 in0.0 mm
10:47 AM 73.8°F23.2°C 54.6°F12.6°C 54% - N16091.8 kmh N -- 27.52 in931.9 mb 0.00 in0.0 mm 0.00 in/hr0.0 mm/hr 0.00 in0.0 mm
10:42 AM 74.2°F23.4°C 50.4°F10.2°C 46% - N16091.8 kmh N -- 27.52 in931.9 mb 0.00 in0.0 mm 0.00 in/hr0.0 mm/hr 0.00 in0.0 mm
10:37 AM 74.5°F23.6°C 51.5°F10.8°C 42% - N16091.8 kmh N -- 27.52 in931.9 mb 0.00 in0.0 mm 0.00 in/hr0.0 mm/hr 0.00 in0.0 mm
10:32 AM 74.4°F23.6°C 56.6°F13.7°C 50% - N16091.8 kmh N -- 27.52 in931.9 mb 0.00 in0.0 mm 0.00 in/hr0.0 mm/hr 0.00 in0.0 mm
10:27 AM 74.2°F23.4°C 55.1°F12.8°C 54% - N16091.8 kmh N -- 27.49 in930.9 mb 0.00 in0.0 mm 0.00 in/hr0.0 mm/hr 0.00 in0.0 mm
10:22 AM 74.4°F23.6°C 50.7°F10.4°C 47% - N16091.8 kmh N -- 27.49 in930.9 mb 0.00 in0.0 mm 0.00 in/hr0.0 mm/hr 0.00 in0.0 mm
10:17 AM 74.7°F23.7°C 51.1°F10.6°C 41% - N16091.8 kmh N -- 27.49 in930.9 mb 0.00 in0.0 mm 0.00 in/hr0.0 mm/hr 0.00 in0.0 mm
10:12 AM 74.9°F23.8°C 56.1°F13.4°C 48% - N16091.8 kmh N -- 27.49 in930.9 mb 0.00 in0.0 mm 0.00 in/hr0.0 mm/hr 0.00 in0.0 mm
10:07 AM 74.6°F23.7°C 54.8°F12.7°C 53% - N16091.8 kmh N -- 27.49 in930.9 mb 0.00 in0.0 mm 0.00 in/hr0.0 mm/hr 0.00 in0.0 mm
10:02 AM 74.5°F23.6°C 50.6°F10.3°C 46% - N16091.8 kmh N -- 27.49 in930.9 mb 0.00 in0.0 mm 0.00 in/hr0.0 mm/hr 0.00 in0.0 mm
09:57 AM 74.6°F23.7°C 51.8°F11.0°C 42% - N16091.8 kmh N -- 27.52 in931.9 mb 0.00 in0.0 mm 0.00 in/hr0.0 mm/hr 0.00 in0.0 mm
09:52 AM 74.7°F23.7°C 56.6°F13.7°C 50% - N16091.8 kmh N -- 27.52 in931.9 mb 0.00 in0.0 mm 0.00 in/hr0.0 mm/hr 0.00 in0.0 mm
09:47 AM 74.2°F23.4°C 55.4°F13.0°C 54% - N16091.8 kmh N -- 27.52 in931.9 mb 0.00 in0.0 mm 0.00 in/hr0.0 mm/hr 0.00 in0.0 mm
09:42 AM 73.9°F23.3°C 50.9°F10.5°C 48% - N16091.8 kmh N -- 27.49 in930.9 mb 0.00 in0.0 mm 0.00 in/hr0.0 mm/hr 0.00 in0.0 mm
09:37 AM 74.0°F23.3°C 50.6°F10.3°C 42% - N16091.8 kmh N -- 27.49 in930.9 mb 0.00 in0.0 mm 0.00 in/hr0.0 mm/hr 0.00 in0.0 mm
09:32 AM 74.3°F23.5°C 55.7°F13.2°C 49% 2.7 mph E4.3 kmh E 6.5 mph10.5 kmh 27.49 in930.9 mb 0.00 in0.0 mm 0.00 in/hr0.0 mm/hr 0.00 in0.0 mm
09:27 AM 73.9°F23.3°C 56.1°F13.4°C 55% 3.6 mph W5.8 kmh W 6.3 mph10.1 kmh 27.46 in929.9 mb 0.00 in0.0 mm 0.00 in/hr0.0 mm/hr 0.00 in0.0 mm
09:22 AM 73.6°F23.1°C 52.0°F11.1°C 50% - N16091.8 kmh N -- 27.46 in929.9 mb 0.00 in0.0 mm 0.00 in/hr0.0 mm/hr 0.00 in0.0 mm
09:17 AM 73.8°F23.2°C 52.1°F11.2°C 43% 2.5 mph N4.0 kmh N 6.5 mph10.5 kmh 27.46 in929.9 mb 0.00 in0.0 mm 0.00 in/hr0.0 mm/hr 0.00 in0.0 mm
09:12 AM 73.7°F23.2°C 57.2°F14.0°C 54% 3.7 mph NW6.0 kmh NW 10.1 mph16.3 kmh 27.49 in930.9 mb 0.00 in0.0 mm 0.00 in/hr0.0 mm/hr 0.00 in0.0 mm
09:07 AM 73.3°F22.9°C 56.3°F13.5°C 57% 2.5 mph WNW4.0 kmh WNW 13.4 mph21.6 kmh 27.49 in930.9 mb 0.00 in0.0 mm 0.00 in/hr0.0 mm/hr 0.00 in0.0 mm
09:02 AM 73.4°F23.0°C 52.5°F11.4°C 52% 6.0 mph W9.7 kmh W 13.4 mph21.6 kmh 27.49 in930.9 mb 0.00 in0.0 mm 0.00 in/hr0.0 mm/hr 0.00 in0.0 mm
08:57 AM 73.9°F23.3°C 52.1°F11.2°C 43% 3.1 mph NW5.0 kmh NW 12.3 mph19.8 kmh 27.52 in931.9 mb 0.00 in0.0 mm 0.00 in/hr0.0 mm/hr 0.00 in0.0 mm
08:52 AM 74.1°F23.4°C 56.5°F13.6°C 52% 5.1 mph SE8.2 kmh SE 11.0 mph17.7 kmh 27.52 in931.9 mb 0.00 in0.0 mm 0.00 in/hr0.0 mm/hr 0.00 in0.0 mm
08:47 AM 73.7°F23.2°C 56.3°F13.5°C 55% 4.6 mph ENE7.4 kmh ENE 8.1 mph13.0 kmh 27.52 in931.9 mb 0.00 in0.0 mm 0.00 in/hr0.0 mm/hr 0.00 in0.0 mm
08:42 AM 73.5°F23.1°C 53.9°F12.2°C 53% - N16091.8 kmh N -- 27.46 in929.9 mb 0.00 in0.0 mm 0.00 in/hr0.0 mm/hr 0.00 in0.0 mm
08:37 AM 73.6°F23.1°C 51.2°F10.7°C 46% - N16091.8 kmh N -- 27.46 in929.9 mb 0.00 in0.0 mm 0.00 in/hr0.0 mm/hr 0.00 in0.0 mm
08:32 AM 73.9°F23.3°C 55.6°F13.1°C 50% - N16091.8 kmh N -- 27.46 in929.9 mb 0.00 in0.0 mm 0.00 in/hr0.0 mm/hr 0.00 in0.0 mm
08:27 AM 73.5°F23.1°C 56.8°F13.8°C 56% - N16091.8 kmh N -- 27.46 in929.9 mb 0.00 in0.0 mm 0.00 in/hr0.0 mm/hr 0.00 in0.0 mm
08:22 AM 73.0°F22.8°C 55.9°F13.3°C 56% - N16091.8 kmh N -- 27.46 in929.9 mb 0.00 in0.0 mm 0.00 in/hr0.0 mm/hr 0.00 in0.0 mm
08:17 AM 73.1°F22.8°C 53.2°F11.8°C 53% - N16091.8 kmh N -- 27.46 in929.9 mb 0.00 in0.0 mm 0.00 in/hr0.0 mm/hr 0.00 in0.0 mm
08:12 AM 73.8°F23.2°C 51.6°F10.9°C 44% - N16091.8 kmh N -- 27.49 in930.9 mb 0.00 in0.0 mm 0.00 in/hr0.0 mm/hr 0.00 in0.0 mm
08:07 AM 74.3°F23.5°C 55.4°F13.0°C 51% - N16091.8 kmh N -- 27.49 in930.9 mb 0.00 in0.0 mm 0.00 in/hr0.0 mm/hr 0.00 in0.0 mm
08:02 AM 74.1°F23.4°C 55.4°F13.0°C 52% - N16091.8 kmh N -- 27.49 in930.9 mb 0.00 in0.0 mm 0.00 in/hr0.0 mm/hr 0.00 in0.0 mm
07:57 AM 73.9°F23.3°C 55.2°F12.9°C 52% - N16091.8 kmh N -- 27.52 in931.9 mb 0.00 in0.0 mm 0.00 in/hr0.0 mm/hr 0.00 in0.0 mm
07:52 AM 73.7°F23.2°C 55.1°F12.8°C 52% - N16091.8 kmh N -- 27.52 in931.9 mb 0.00 in0.0 mm 0.00 in/hr0.0 mm/hr 0.00 in0.0 mm
07:47 AM 73.4°F23.0°C 55.0°F12.8°C 53% - N16091.8 kmh N -- 27.52 in931.9 mb 0.00 in0.0 mm 0.00 in/hr0.0 mm/hr 0.00 in0.0 mm
07:42 AM 73.4°F23.0°C 52.5°F11.4°C 51% 3.1 mph W5.0 kmh W 4.0 mph6.4 kmh 27.46 in929.9 mb 0.00 in0.0 mm 0.00 in/hr0.0 mm/hr 0.00 in0.0 mm
07:37 AM 73.7°F23.2°C 50.7°F10.4°C 44% - N16091.8 kmh N -- 27.46 in929.9 mb 0.00 in0.0 mm 0.00 in/hr0.0 mm/hr 0.00 in0.0 mm
07:32 AM 74.0°F23.3°C 54.4°F12.4°C 48% - N16091.8 kmh N -- 27.46 in929.9 mb 0.00 in0.0 mm 0.00 in/hr0.0 mm/hr 0.00 in0.0 mm
07:27 AM 73.6°F23.1°C 54.5°F12.5°C 51% - N16091.8 kmh N -- 27.46 in929.9 mb 0.00 in0.0 mm 0.00 in/hr0.0 mm/hr 0.00 in0.0 mm
07:22 AM 73.1°F22.8°C 54.3°F12.4°C 52% - N16091.8 kmh N -- 27.46 in929.9 mb 0.00 in0.0 mm 0.00 in/hr0.0 mm/hr 0.00 in0.0 mm
07:17 AM 72.8°F22.7°C 52.9°F11.6°C 51% 4.0 mph NW6.4 kmh NW 8.1 mph13.0 kmh 27.46 in929.9 mb 0.00 in0.0 mm 0.00 in/hr0.0 mm/hr 0.00 in0.0 mm
07:12 AM 73.5°F23.1°C 49.9°F9.9°C 46% 6.8 mph WSW10.9 kmh WSW 10.1 mph16.3 kmh 27.46 in929.9 mb 0.00 in0.0 mm 0.00 in/hr0.0 mm/hr 0.00 in0.0 mm
07:07 AM 74.0°F23.3°C 52.6°F11.4°C 44% - N16091.8 kmh N -- 27.46 in929.9 mb 0.00 in0.0 mm 0.00 in/hr0.0 mm/hr 0.00 in0.0 mm
07:02 AM 73.7°F23.2°C 53.4°F11.9°C 49% 3.3 mph SW5.3 kmh SW 9.2 mph14.8 kmh 27.46 in929.9 mb 0.00 in0.0 mm 0.00 in/hr0.0 mm/hr 0.00 in0.0 mm
06:57 AM 73.2°F22.9°C 52.9°F11.6°C 49% 4.7 mph SSW7.6 kmh SSW 12.5 mph20.1 kmh 27.43 in928.9 mb 0.00 in0.0 mm 0.00 in/hr0.0 mm/hr 0.00 in0.0 mm
06:52 AM 72.9°F22.7°C 52.3°F11.3°C 49% 7.0 mph NW11.3 kmh NW 12.5 mph20.1 kmh 27.43 in928.9 mb 0.00 in0.0 mm 0.00 in/hr0.0 mm/hr 0.00 in0.0 mm
06:47 AM 73.4°F23.0°C 50.0°F10.0°C 47% 4.0 mph WSW6.4 kmh WSW 8.5 mph13.7 kmh 27.43 in928.9 mb 0.00 in0.0 mm 0.00 in/hr0.0 mm/hr 0.00 in0.0 mm
06:42 AM 74.3°F23.5°C 51.1°F10.6°C 42% 4.5 mph E7.2 kmh E 4.0 mph6.4 kmh 27.43 in928.9 mb 0.00 in0.0 mm 0.00 in/hr0.0 mm/hr 0.00 in0.0 mm
06:37 AM 74.5°F23.6°C 52.4°F11.3°C 46% - N16091.8 kmh N -- 27.43 in928.9 mb 0.00 in0.0 mm 0.00 in/hr0.0 mm/hr 0.00 in0.0 mm
06:32 AM 74.3°F23.5°C 52.2°F11.2°C 46% - N16091.8 kmh N -- 27.43 in928.9 mb 0.00 in0.0 mm 0.00 in/hr0.0 mm/hr 0.00 in0.0 mm
06:27 AM 74.2°F23.4°C 52.1°F11.2°C 46% - N16091.8 kmh N -- 27.46 in929.9 mb 0.00 in0.0 mm 0.00 in/hr0.0 mm/hr 0.00 in0.0 mm
06:22 AM 74.1°F23.4°C 52.0°F11.1°C 46% 3.5 mph N5.6 kmh N 6.0 mph9.7 kmh 27.46 in929.9 mb 0.00 in0.0 mm 0.00 in/hr0.0 mm/hr 0.00 in0.0 mm
06:17 AM 73.9°F23.3°C 51.9°F11.1°C 46% 3.7 mph WNW6.0 kmh WNW 9.4 mph15.1 kmh 27.46 in929.9 mb 0.00 in0.0 mm 0.00 in/hr0.0 mm/hr 0.00 in0.0 mm
06:12 AM 73.8°F23.2°C 51.8°F11.0°C 46% 4.5 mph W7.2 kmh W 9.4 mph15.1 kmh 27.46 in929.9 mb 0.00 in0.0 mm 0.00 in/hr0.0 mm/hr 0.00 in0.0 mm
06:07 AM 73.7°F23.2°C 51.6°F10.9°C 46% 3.0 mph W4.8 kmh W 7.2 mph11.6 kmh 27.46 in929.9 mb 0.00 in0.0 mm 0.00 in/hr0.0 mm/hr 0.00 in0.0 mm
06:02 AM 73.6°F23.1°C 51.5°F10.8°C 46% 2.8 mph NW4.5 kmh NW 3.8 mph6.1 kmh 27.46 in929.9 mb 0.00 in0.0 mm 0.00 in/hr0.0 mm/hr 0.00 in0.0 mm
05:57 AM 73.6°F23.1°C 49.8°F9.9°C 45% 3.0 mph WNW4.8 kmh WNW 6.3 mph10.1 kmh 27.43 in928.9 mb 0.00 in0.0 mm 0.00 in/hr0.0 mm/hr 0.00 in0.0 mm
05:52 AM 74.1°F23.4°C 49.5°F9.7°C 41% 1.7 mph ENE2.7 kmh ENE 6.3 mph10.1 kmh 27.43 in928.9 mb 0.00 in0.0 mm 0.00 in/hr0.0 mm/hr 0.00 in0.0 mm
05:47 AM 74.5°F23.6°C 51.2°F10.7°C 44% 1.3 mph NW2.1 kmh NW 4.3 mph6.9 kmh 27.43 in928.9 mb 0.00 in0.0 mm 0.00 in/hr0.0 mm/hr 0.00 in0.0 mm
05:42 AM 74.5°F23.6°C 51.2°F10.7°C 44% 1.7 mph SSE2.7 kmh SSE 4.3 mph6.9 kmh 27.46 in929.9 mb 0.00 in0.0 mm 0.00 in/hr0.0 mm/hr 0.00 in0.0 mm
05:37 AM 74.5°F23.6°C 51.2°F10.7°C 44% 1.3 mph S2.1 kmh S 2.2 mph3.5 kmh 27.46 in929.9 mb 0.00 in0.0 mm 0.00 in/hr0.0 mm/hr 0.00 in0.0 mm
05:32 AM 74.3°F23.5°C 51.0°F10.6°C 44% Calm Calm 3.1 mph5.0 kmh 27.46 in929.9 mb 0.00 in0.0 mm 0.00 in/hr0.0 mm/hr 0.00 in0.0 mm
05:27 AM 74.3°F23.5°C 51.0°F10.6°C 44% 1.6 mph E2.6 kmh E 5.6 mph9.0 kmh -338605.1 mb 0.00 in0.0 mm 0.00 in/hr0.0 mm/hr 0.00 in0.0 mm
05:22 AM 74.2°F23.4°C 50.9°F10.5°C 44% 3.5 mph ENE5.6 kmh ENE 5.6 mph9.0 kmh 27.49 in930.9 mb 0.00 in0.0 mm 0.00 in/hr0.0 mm/hr 0.00 in0.0 mm
05:17 AM 74.1°F23.4°C 50.8°F10.4°C 44% 3.2 mph SE5.1 kmh SE 5.6 mph9.0 kmh 27.49 in930.9 mb 0.00 in0.0 mm 0.00 in/hr0.0 mm/hr 0.00 in0.0 mm
05:12 AM 74.0°F23.3°C 50.7°F10.4°C 44% 2.9 mph SSE4.7 kmh SSE 5.6 mph9.0 kmh 27.46 in929.9 mb 0.00 in0.0 mm 0.00 in/hr0.0 mm/hr 0.00 in0.0 mm
05:07 AM 73.9°F23.3°C 50.7°F10.4°C 44% 3.9 mph WSW6.3 kmh WSW 4.9 mph7.9 kmh 27.46 in929.9 mb 0.00 in0.0 mm 0.00 in/hr0.0 mm/hr 0.00 in0.0 mm
05:02 AM 73.8°F23.2°C 50.5°F10.3°C 44% 0.4 mph SSW0.6 kmh SSW 5.4 mph8.7 kmh 27.46 in929.9 mb 0.00 in0.0 mm 0.00 in/hr0.0 mm/hr 0.00 in0.0 mm
04:57 AM 73.6°F23.1°C 50.4°F10.2°C 44% 2.7 mph WSW4.3 kmh WSW 5.4 mph8.7 kmh 27.46 in929.9 mb 0.00 in0.0 mm 0.00 in/hr0.0 mm/hr 0.00 in0.0 mm
04:52 AM 73.5°F23.1°C 50.0°F10.0°C 44% 2.3 mph SW3.7 kmh SW 4.7 mph7.6 kmh 27.46 in929.9 mb 0.00 in0.0 mm 0.00 in/hr0.0 mm/hr 0.00 in0.0 mm
04:47 AM 73.9°F23.3°C 48.1°F8.9°C 41% - N16091.8 kmh N -- 27.46 in929.9 mb 0.00 in0.0 mm 0.00 in/hr0.0 mm/hr 0.00 in0.0 mm
04:42 AM 74.5°F23.6°C 50.3°F10.2°C 42% 2.6 mph N4.2 kmh N 4.7 mph7.6 kmh 27.46 in929.9 mb 0.00 in0.0 mm 0.00 in/hr0.0 mm/hr 0.00 in0.0 mm
04:37 AM 74.5°F23.6°C 50.5°F10.3°C 43% - N16091.8 kmh N -- 27.46 in929.9 mb 0.00 in0.0 mm 0.00 in/hr0.0 mm/hr 0.00 in0.0 mm
04:32 AM 74.5°F23.6°C 50.5°F10.3°C 43% 3.1 mph W5.0 kmh W 6.0 mph9.7 kmh 27.46 in929.9 mb 0.00 in0.0 mm 0.00 in/hr0.0 mm/hr 0.00 in0.0 mm
04:27 AM 74.3°F23.5°C 50.4°F10.2°C 43% 4.2 mph SW6.8 kmh SW 7.8 mph12.6 kmh 27.46 in929.9 mb 0.00 in0.0 mm 0.00 in/hr0.0 mm/hr 0.00 in0.0 mm
04:22 AM 74.3°F23.5°C 50.4°F10.2°C 43% 1.6 mph NW2.6 kmh NW 7.8 mph12.6 kmh 27.46 in929.9 mb 0.00 in0.0 mm 0.00 in/hr0.0 mm/hr 0.00 in0.0 mm
04:17 AM 74.2°F23.4°C 50.2°F10.1°C 43% - N16091.8 kmh N -- 27.46 in929.9 mb 0.00 in0.0 mm 0.00 in/hr0.0 mm/hr 0.00 in0.0 mm
04:12 AM 74.1°F23.4°C 50.2°F10.1°C 43% 1.1 mph W1.8 kmh W 3.1 mph5.0 kmh 27.46 in929.9 mb 0.00 in0.0 mm 0.00 in/hr0.0 mm/hr 0.00 in0.0 mm
04:07 AM 74.0°F23.3°C 50.1°F10.1°C 43% 1.1 mph NE1.8 kmh NE 2.9 mph4.7 kmh 27.46 in929.9 mb 0.00 in0.0 mm 0.00 in/hr0.0 mm/hr 0.00 in0.0 mm
04:02 AM 73.9°F23.3°C 50.1°F10.1°C 43% 1.6 mph SE2.6 kmh SE 2.7 mph4.3 kmh 27.46 in929.9 mb 0.00 in0.0 mm 0.00 in/hr0.0 mm/hr 0.00 in0.0 mm
03:57 AM 73.8°F23.2°C 49.9°F9.9°C 43% 0.3 mph ESE0.5 kmh ESE 2.2 mph3.5 kmh 27.43 in928.9 mb 0.00 in0.0 mm 0.00 in/hr0.0 mm/hr 0.00 in0.0 mm
03:52 AM 73.6°F23.1°C 49.8°F9.9°C 43% Calm Calm 2.2 mph3.5 kmh 27.43 in928.9 mb 0.00 in0.0 mm 0.00 in/hr0.0 mm/hr 0.00 in0.0 mm
03:47 AM 73.5°F23.1°C 50.3°F10.2°C 44% Calm Calm 2.0 mph3.2 kmh 27.43 in928.9 mb 0.00 in0.0 mm 0.00 in/hr0.0 mm/hr 0.00 in0.0 mm
03:42 AM 73.4°F23.0°C 49.9°F9.9°C 44% 0.6 mph N1.0 kmh N 2.5 mph4.0 kmh 27.43 in928.9 mb 0.00 in0.0 mm 0.00 in/hr0.0 mm/hr 0.00 in0.0 mm
03:37 AM 73.7°F23.2°C 48.3°F9.1°C 42% 2.0 mph N3.2 kmh N 2.5 mph4.0 kmh 27.43 in928.9 mb 0.00 in0.0 mm 0.00 in/hr0.0 mm/hr 0.00 in0.0 mm
03:32 AM 74.1°F23.4°C 50.2°F10.1°C 43% 0.4 mph E0.6 kmh E 2.9 mph4.7 kmh 27.43 in928.9 mb 0.00 in0.0 mm 0.00 in/hr0.0 mm/hr 0.00 in0.0 mm
03:27 AM 73.9°F23.3°C 50.2°F10.1°C 43% Calm Calm 4.0 mph6.4 kmh 27.46 in929.9 mb 0.00 in0.0 mm 0.00 in/hr0.0 mm/hr 0.00 in0.0 mm
03:22 AM 73.7°F23.2°C 50.4°F10.2°C 44% - N16091.8 kmh N -- 27.46 in929.9 mb 0.00 in0.0 mm 0.00 in/hr0.0 mm/hr 0.00 in0.0 mm
03:17 AM 73.3°F22.9°C 50.1°F10.1°C 44% 2.6 mph W4.2 kmh W 2.9 mph4.7 kmh 27.46 in929.9 mb 0.00 in0.0 mm 0.00 in/hr0.0 mm/hr 0.00 in0.0 mm
03:12 AM 73.1°F22.8°C 49.8°F9.9°C 44% 1.6 mph NNE2.6 kmh NNE 3.1 mph5.0 kmh 27.46 in929.9 mb 0.00 in0.0 mm 0.00 in/hr0.0 mm/hr 0.00 in0.0 mm
03:07 AM 73.9°F23.3°C 48.3°F9.1°C 42% - N16091.8 kmh N -- 27.46 in929.9 mb 0.00 in0.0 mm 0.00 in/hr0.0 mm/hr 0.00 in0.0 mm
03:02 AM 74.4°F23.6°C 50.4°F10.2°C 42% 4.7 mph W7.6 kmh W 7.2 mph11.6 kmh 27.46 in929.9 mb 0.00 in0.0 mm 0.00 in/hr0.0 mm/hr 0.00 in0.0 mm
02:57 AM 74.3°F23.5°C 50.6°F10.3°C 43% - N16091.8 kmh N -- 27.46 in929.9 mb 0.00 in0.0 mm 0.00 in/hr0.0 mm/hr 0.00 in0.0 mm
02:52 AM 74.1°F23.4°C 50.8°F10.4°C 44% - N16091.8 kmh N -- 27.46 in929.9 mb 0.00 in0.0 mm 0.00 in/hr0.0 mm/hr 0.00 in0.0 mm
02:47 AM 74.0°F23.3°C 50.7°F10.4°C 44% - N16091.8 kmh N -- 27.46 in929.9 mb 0.00 in0.0 mm 0.00 in/hr0.0 mm/hr 0.00 in0.0 mm
02:42 AM 73.8°F23.2°C 50.5°F10.3°C 44% - N16091.8 kmh N -- 27.52 in931.9 mb 0.00 in0.0 mm 0.00 in/hr0.0 mm/hr 0.00 in0.0 mm
02:37 AM 73.5°F23.1°C 50.5°F10.3°C 44% 2.5 mph NE4.0 kmh NE 1.6 mph2.6 kmh 27.52 in931.9 mb 0.00 in0.0 mm 0.00 in/hr0.0 mm/hr 0.00 in0.0 mm
02:32 AM 73.1°F22.8°C 50.6°F10.3°C 45% Calm Calm 2.9 mph4.7 kmh 27.52 in931.9 mb 0.00 in0.0 mm 0.00 in/hr0.0 mm/hr 0.00 in0.0 mm
02:27 AM 72.8°F22.7°C 50.1°F10.1°C 45% 2.3 mph WSW3.7 kmh WSW 3.1 mph5.0 kmh 27.46 in929.9 mb 0.00 in0.0 mm 0.00 in/hr0.0 mm/hr 0.00 in0.0 mm
02:22 AM 73.5°F23.1°C 48.7°F9.3°C 44% 2.0 mph W3.2 kmh W 3.8 mph6.1 kmh 27.46 in929.9 mb 0.00 in0.0 mm 0.00 in/hr0.0 mm/hr 0.00 in0.0 mm
02:17 AM 74.3°F23.5°C 50.2°F10.1°C 42% - N16091.8 kmh N -- 27.46 in929.9 mb 0.00 in0.0 mm 0.00 in/hr0.0 mm/hr 0.00 in0.0 mm
02:12 AM 74.3°F23.5°C 50.6°F10.3°C 43% - N16091.8 kmh N -- 27.49 in930.9 mb 0.00 in0.0 mm 0.00 in/hr0.0 mm/hr 0.00 in0.0 mm
02:07 AM 74.1°F23.4°C 50.8°F10.4°C 44% 1.3 mph N2.1 kmh N 3.6 mph5.8 kmh 27.49 in930.9 mb 0.00 in0.0 mm 0.00 in/hr0.0 mm/hr 0.00 in0.0 mm
02:02 AM 74.0°F23.3°C 50.7°F10.4°C 44% - N16091.8 kmh N -- 27.49 in930.9 mb 0.00 in0.0 mm 0.00 in/hr0.0 mm/hr 0.00 in0.0 mm
01:57 AM 73.7°F23.2°C 50.5°F10.3°C 44% 1.5 mph WSW2.4 kmh WSW 3.1 mph5.0 kmh 27.52 in931.9 mb 0.00 in0.0 mm 0.00 in/hr0.0 mm/hr 0.00 in0.0 mm
01:52 AM 73.6°F23.1°C 50.4°F10.2°C 44% 2.5 mph SE4.0 kmh SE 3.1 mph5.0 kmh 27.52 in931.9 mb 0.00 in0.0 mm 0.00 in/hr0.0 mm/hr 0.00 in0.0 mm
01:47 AM 73.6°F23.1°C 49.2°F9.6°C 44% 1.9 mph NW3.1 kmh NW 4.0 mph6.4 kmh 27.52 in931.9 mb 0.00 in0.0 mm 0.00 in/hr0.0 mm/hr 0.00 in0.0 mm
01:42 AM 74.2°F23.4°C 49.0°F9.4°C 39% - N16091.8 kmh N -- 27.46 in929.9 mb 0.00 in0.0 mm 0.00 in/hr0.0 mm/hr 0.00 in0.0 mm
01:37 AM 74.6°F23.7°C 50.7°F10.4°C 43% 3.6 mph S5.8 kmh S 3.4 mph5.5 kmh 27.46 in929.9 mb 0.00 in0.0 mm 0.00 in/hr0.0 mm/hr 0.00 in0.0 mm
01:32 AM 74.5°F23.6°C 51.0°F10.6°C 43% 4.9 mph SW7.9 kmh SW 4.7 mph7.6 kmh 27.46 in929.9 mb 0.00 in0.0 mm 0.00 in/hr0.0 mm/hr 0.00 in0.0 mm
01:27 AM 74.4°F23.6°C 51.1°F10.6°C 44% 2.9 mph SSW4.7 kmh SSW 4.7 mph7.6 kmh 27.49 in930.9 mb 0.00 in0.0 mm 0.00 in/hr0.0 mm/hr 0.00 in0.0 mm
01:22 AM 74.3°F23.5°C 51.1°F10.6°C 44% - N16091.8 kmh N -- 27.49 in930.9 mb 0.00 in0.0 mm 0.00 in/hr0.0 mm/hr 0.00 in0.0 mm
01:17 AM 74.3°F23.5°C 51.6°F10.9°C 45% 3.3 mph WSW5.3 kmh WSW 8.7 mph14.0 kmh 27.49 in930.9 mb 0.00 in0.0 mm 0.00 in/hr0.0 mm/hr 0.00 in0.0 mm
01:12 AM 74.1°F23.4°C 51.5°F10.8°C 45% 3.4 mph NW5.5 kmh NW 2.7 mph4.3 kmh 27.49 in930.9 mb 0.00 in0.0 mm 0.00 in/hr0.0 mm/hr 0.00 in0.0 mm
01:07 AM 74.1°F23.4°C 52.0°F11.1°C 46% - N16091.8 kmh N -- 27.49 in930.9 mb 0.00 in0.0 mm 0.00 in/hr0.0 mm/hr 0.00 in0.0 mm
01:02 AM 74.1°F23.4°C 52.0°F11.1°C 46% - N16091.8 kmh N -- 27.49 in930.9 mb 0.00 in0.0 mm 0.00 in/hr0.0 mm/hr 0.00 in0.0 mm
12:57 AM 74.1°F23.4°C 52.2°F11.2°C 46% 1.1 mph NNE1.8 kmh NNE 2.5 mph4.0 kmh 27.52 in931.9 mb 0.00 in0.0 mm 0.00 in/hr0.0 mm/hr 0.00 in0.0 mm
12:52 AM 74.1°F23.4°C 52.6°F11.4°C 47% 2.0 mph NW3.2 kmh NW 2.5 mph4.0 kmh 27.52 in931.9 mb 0.00 in0.0 mm 0.00 in/hr0.0 mm/hr 0.00 in0.0 mm
12:47 AM 74.1°F23.4°C 52.6°F11.4°C 47% Calm Calm 2.5 mph4.0 kmh 27.52 in931.9 mb 0.00 in0.0 mm 0.00 in/hr0.0 mm/hr 0.00 in0.0 mm
12:42 AM 74.1°F23.4°C 52.6°F11.4°C 47% - N16091.8 kmh N -- 27.52 in931.9 mb 0.00 in0.0 mm 0.00 in/hr0.0 mm/hr 0.00 in0.0 mm
12:37 AM 74.1°F23.4°C 53.1°F11.7°C 47% Calm Calm 1.6 mph2.6 kmh 27.52 in931.9 mb 0.00 in0.0 mm 0.00 in/hr0.0 mm/hr 0.00 in0.0 mm
12:32 AM 74.1°F23.4°C 53.2°F11.8°C 48% 0.3 mph N0.5 kmh N 2.0 mph3.2 kmh 27.52 in931.9 mb 0.00 in0.0 mm 0.00 in/hr0.0 mm/hr 0.00 in0.0 mm
12:27 AM 74.1°F23.4°C 53.2°F11.8°C 48% 0.7 mph SW1.1 kmh SW 2.0 mph3.2 kmh 27.55 in933.0 mb 0.00 in0.0 mm 0.00 in/hr0.0 mm/hr 0.00 in0.0 mm
12:22 AM 74.1°F23.4°C 53.4°F11.9°C 48% - N16091.8 kmh N -- 27.55 in933.0 mb 0.00 in0.0 mm 0.00 in/hr0.0 mm/hr 0.00 in0.0 mm
12:17 AM 74.1°F23.4°C 53.8°F12.1°C 49% - N16091.8 kmh N -- 27.55 in933.0 mb 0.00 in0.0 mm 0.00 in/hr0.0 mm/hr 0.00 in0.0 mm
12:12 AM 74.1°F23.4°C 53.8°F12.1°C 49% Calm Calm 1.1 mph1.8 kmh 27.55 in933.0 mb 0.00 in0.0 mm 0.00 in/hr0.0 mm/hr 0.00 in0.0 mm
12:07 AM 74.1°F23.4°C 54.1°F12.3°C 49% Calm Calm 1.3 mph2.1 kmh 27.55 in933.0 mb 0.00 in0.0 mm 0.00 in/hr0.0 mm/hr 0.00 in0.0 mm
12:02 AM 74.1°F23.4°C 54.3°F12.4°C 50% 0.7 mph NE1.1 kmh NE 2.7 mph4.3 kmh 27.55 in933.0 mb 0.00 in0.0 mm 0.00 in/hr0.0 mm/hr 0.00 in0.0 mm